createdAt,value
2023-03-19T00:01:13.186Z,93855.00
2023-03-19T00:03:42.698Z,93859.00
2023-03-19T00:06:09.666Z,93860.00
2023-03-19T00:08:38.859Z,93861.00
2023-03-19T00:11:08.523Z,93856.00
2023-03-19T00:13:38.554Z,93857.00
2023-03-19T00:16:08.244Z,93855.00
2023-03-19T00:18:35.257Z,93858.00
2023-03-19T00:21:05.745Z,93859.00
2023-03-19T00:23:32.897Z,93863.00
2023-03-19T00:26:05.601Z,93862.00
2023-03-19T00:28:32.883Z,93863.00
2023-03-19T00:31:09.701Z,93860.00
2023-03-19T00:33:37.165Z,93864.00
2023-03-19T00:36:10.904Z,93880.00
2023-03-19T00:38:38.726Z,93880.00
2023-03-19T00:41:08.804Z,93884.00
2023-03-19T00:43:36.462Z,93885.00
2023-03-19T00:46:04.343Z,93890.00
2023-03-19T00:48:33.334Z,93885.00
2023-03-19T00:51:09.133Z,93889.00
2023-03-19T00:53:43.664Z,93882.00
2023-03-19T00:56:13.295Z,93890.00
2023-03-19T00:58:45.351Z,93892.00
2023-03-19T01:01:25.163Z,93898.00
2023-03-19T01:03:54.154Z,93893.00
2023-03-19T01:06:21.054Z,93906.00
2023-03-19T01:08:47.867Z,93892.00
2023-03-19T01:11:17.223Z,93899.00
2023-03-19T01:13:44.495Z,93899.00
2023-03-19T01:16:11.513Z,93899.00
2023-03-19T01:18:41.078Z,93896.00
2023-03-19T01:21:08.421Z,93897.00
2023-03-19T01:23:37.844Z,93898.00
2023-03-19T01:26:05.337Z,93895.00
2023-03-19T01:28:32.286Z,93895.00
2023-03-19T01:31:01.891Z,93897.00
2023-03-19T01:33:31.466Z,93902.00
2023-03-19T01:35:59.453Z,93898.00
2023-03-19T01:38:26.357Z,93897.00
2023-03-19T01:40:55.460Z,93891.00
2023-03-19T01:43:29.040Z,93893.00
2023-03-19T01:46:13.227Z,93903.00
2023-03-19T01:48:45.238Z,93913.00
2023-03-19T01:51:17.526Z,93896.00
2023-03-19T01:53:52.704Z,93886.00
2023-03-19T01:56:41.488Z,93920.00
2023-03-19T01:59:21.325Z,93911.00
2023-03-19T02:01:59.622Z,93905.00
2023-03-19T02:04:31.923Z,93914.00
2023-03-19T02:07:01.223Z,93910.00
2023-03-19T02:09:31.928Z,93915.00
2023-03-19T02:12:03.142Z,93915.00
2023-03-19T02:14:32.566Z,93911.00
2023-03-19T02:17:02.534Z,93919.00
2023-03-19T02:19:48.595Z,93927.00
2023-03-19T02:22:22.699Z,93927.00
2023-03-19T02:25:22.238Z,93926.00
2023-03-19T02:27:49.232Z,93937.00
2023-03-19T02:30:25.687Z,93923.00
2023-03-19T02:32:57.215Z,93930.00
2023-03-19T02:35:27.128Z,93923.00
2023-03-19T02:37:56.302Z,93930.00
2023-03-19T02:40:31.916Z,93937.00
2023-03-19T02:42:58.974Z,93940.00
2023-03-19T02:45:32.296Z,93938.00
2023-03-19T02:48:01.559Z,93932.00
2023-03-19T02:50:28.509Z,93929.00
2023-03-19T02:52:58.404Z,93937.00
2023-03-19T02:55:28.530Z,93937.00
2023-03-19T02:57:55.448Z,93937.00
2023-03-19T03:00:22.413Z,93942.00
2023-03-19T03:02:51.576Z,93937.00
2023-03-19T03:05:21.544Z,93945.00
2023-03-19T03:07:53.982Z,93951.00
2023-03-19T03:10:20.944Z,93946.00
2023-03-19T03:12:47.870Z,93949.00
2023-03-19T03:15:15.007Z,93953.00
2023-03-19T03:17:45.840Z,93947.00
2023-03-19T03:20:17.713Z,93951.00
2023-03-19T03:22:47.198Z,93959.00
2023-03-19T03:25:19.151Z,93957.00
2023-03-19T03:27:48.762Z,93960.00
2023-03-19T03:30:18.991Z,93956.00
2023-03-19T03:32:48.310Z,93958.00
2023-03-19T03:35:21.868Z,93962.00
2023-03-19T03:37:52.197Z,93967.00
2023-03-19T03:40:22.043Z,93971.00
2023-03-19T03:42:51.474Z,93972.00
2023-03-19T03:45:18.945Z,93977.00
2023-03-19T03:47:46.198Z,93978.00
2023-03-19T03:50:13.836Z,93980.00
2023-03-19T03:52:47.923Z,93980.00
2023-03-19T03:55:14.956Z,93986.00
2023-03-19T03:57:41.842Z,93986.00
2023-03-19T04:00:09.888Z,93991.00
2023-03-19T04:02:36.832Z,94000.00
2023-03-19T04:05:09.223Z,93998.00
2023-03-19T04:07:38.506Z,93996.00
2023-03-19T04:10:07.612Z,93996.00
2023-03-19T04:12:37.979Z,94001.00
2023-03-19T04:15:07.726Z,94007.00
2023-03-19T04:17:37.166Z,94008.00
2023-03-19T04:20:05.617Z,94001.00
2023-03-19T04:22:33.468Z,94012.00
2023-03-19T04:25:02.721Z,94004.00
2023-03-19T04:27:29.582Z,93997.00
2023-03-19T04:29:59.013Z,94005.00
2023-03-19T04:32:26.000Z,94006.00
2023-03-19T04:34:56.194Z,93994.00
2023-03-19T04:37:25.202Z,94001.00
2023-03-19T04:39:52.075Z,94006.00
2023-03-19T04:42:21.495Z,94020.00
2023-03-19T04:44:48.677Z,94009.00
2023-03-19T04:47:15.623Z,94004.00
2023-03-19T04:49:42.484Z,94015.00
2023-03-19T04:52:09.463Z,94021.00
2023-03-19T04:54:38.697Z,94009.00
2023-03-19T04:57:05.762Z,94018.00
2023-03-19T04:59:32.682Z,94022.00
2023-03-19T05:01:59.609Z,94028.00
2023-03-19T05:04:28.622Z,94031.00
2023-03-19T05:06:55.612Z,94027.00
2023-03-19T05:09:22.466Z,94033.00
2023-03-19T05:11:56.572Z,94043.00
2023-03-19T05:14:26.439Z,94043.00
2023-03-19T05:16:53.263Z,94046.00
2023-03-19T05:19:22.531Z,94029.00
2023-03-19T05:21:54.015Z,94037.00
2023-03-19T05:24:23.182Z,94034.00
2023-03-19T05:26:50.687Z,94034.00
2023-03-19T05:29:24.674Z,94027.00
2023-03-19T05:31:54.214Z,94034.00
2023-03-19T05:34:27.099Z,94034.00
2023-03-19T05:36:54.009Z,94037.00
2023-03-19T05:39:23.410Z,94038.00
2023-03-19T05:41:52.797Z,94040.00
2023-03-19T05:44:19.991Z,94042.00
2023-03-19T05:46:49.190Z,94037.00
2023-03-19T05:49:16.197Z,94033.00
2023-03-19T05:51:45.660Z,94036.00
2023-03-19T05:54:14.774Z,94036.00
2023-03-19T05:56:46.337Z,94039.00
2023-03-19T05:59:15.596Z,94049.00
2023-03-19T06:01:42.672Z,94044.00
2023-03-19T06:04:14.579Z,94046.00
2023-03-19T06:06:43.553Z,94048.00
2023-03-19T06:09:10.443Z,94051.00
2023-03-19T06:11:39.502Z,94059.00
2023-03-19T06:14:09.602Z,94053.00
2023-03-19T06:16:39.202Z,94046.00
2023-03-19T06:19:08.612Z,94052.00
2023-03-19T06:21:37.703Z,94053.00
2023-03-19T06:24:07.244Z,94055.00
2023-03-19T06:26:41.320Z,94052.00
2023-03-19T06:29:11.427Z,94060.00
2023-03-19T06:31:40.012Z,94065.00
2023-03-19T06:34:07.367Z,94065.00
2023-03-19T06:36:34.262Z,94069.00
2023-03-19T06:39:01.595Z,94066.00
2023-03-19T06:41:28.532Z,94060.00
2023-03-19T06:43:55.456Z,94057.00
2023-03-19T06:46:22.453Z,94058.00
2023-03-19T06:48:49.433Z,94064.00
2023-03-19T06:51:16.309Z,94059.00
2023-03-19T06:53:43.137Z,94056.00
2023-03-19T06:56:12.562Z,94054.00
2023-03-19T06:58:39.476Z,94058.00
2023-03-19T07:01:09.350Z,94071.00
2023-03-19T07:03:36.333Z,94069.00
2023-03-19T07:06:07.755Z,94065.00
2023-03-19T07:08:34.665Z,94066.00
2023-03-19T07:11:06.985Z,94060.00
2023-03-19T07:13:38.417Z,94060.00
2023-03-19T07:16:06.110Z,94068.00
2023-03-19T07:18:35.587Z,94067.00
2023-03-19T07:21:04.834Z,94068.00
2023-03-19T07:23:34.283Z,94073.00
2023-03-19T07:26:03.762Z,94079.00
2023-03-19T07:28:31.217Z,94070.00
2023-03-19T07:31:00.254Z,94072.00
2023-03-19T07:33:29.412Z,94073.00
2023-03-19T07:35:58.631Z,94071.00
2023-03-19T07:38:28.078Z,94069.00
2023-03-19T07:41:01.977Z,94073.00
2023-03-19T07:43:31.314Z,94070.00
2023-03-19T07:46:00.894Z,94063.00
2023-03-19T07:48:30.700Z,94070.00
2023-03-19T07:50:57.724Z,94076.00
2023-03-19T07:53:27.369Z,94078.00
2023-03-19T07:55:54.379Z,94082.00
2023-03-19T07:58:23.990Z,94073.00
2023-03-19T08:00:51.054Z,94078.00
2023-03-19T08:03:17.908Z,94073.00
2023-03-19T08:05:49.996Z,94066.00
2023-03-19T08:08:17.556Z,94081.00
2023-03-19T08:10:47.982Z,94072.00
2023-03-19T08:13:17.355Z,94067.00
2023-03-19T08:15:44.296Z,94067.00
2023-03-19T08:18:11.410Z,94064.00
2023-03-19T08:20:38.291Z,94069.00
2023-03-19T08:23:05.253Z,94064.00
2023-03-19T08:25:37.685Z,94078.00
2023-03-19T08:28:09.766Z,94079.00
2023-03-19T08:30:40.036Z,94070.00
2023-03-19T08:33:07.084Z,94075.00
2023-03-19T08:35:38.826Z,94080.00
2023-03-19T08:38:05.872Z,94074.00
2023-03-19T08:40:34.061Z,94079.00
2023-03-19T08:43:06.813Z,94080.00
2023-03-19T08:45:33.972Z,94077.00
2023-03-19T08:48:04.011Z,94085.00
2023-03-19T08:50:30.955Z,94089.00
2023-03-19T08:53:00.888Z,94064.00
2023-03-19T08:55:27.832Z,94089.00
2023-03-19T08:57:57.308Z,94092.00
2023-03-19T09:00:29.483Z,94093.00
2023-03-19T09:02:56.418Z,94076.00
2023-03-19T09:05:24.270Z,94087.00
2023-03-19T09:07:54.126Z,94080.00
2023-03-19T09:10:23.743Z,94078.00
2023-03-19T09:12:50.668Z,94081.00
2023-03-19T09:15:17.750Z,94081.00
2023-03-19T09:17:49.374Z,94082.00
2023-03-19T09:20:16.320Z,94089.00
2023-03-19T09:22:48.105Z,94084.00
2023-03-19T09:25:17.747Z,94086.00
2023-03-19T09:27:44.732Z,94081.00
2023-03-19T09:30:12.569Z,94080.00
2023-03-19T09:32:42.045Z,94083.00
2023-03-19T09:35:09.474Z,94089.00
2023-03-19T09:37:36.474Z,94081.00
2023-03-19T09:40:07.098Z,94078.00
2023-03-19T09:42:52.543Z,94066.00
2023-03-19T09:45:20.922Z,94071.00
2023-03-19T09:47:57.003Z,94067.00
2023-03-19T09:50:32.357Z,94070.00
2023-03-19T09:53:08.507Z,94070.00
2023-03-19T09:55:45.703Z,94062.00
2023-03-19T09:58:28.356Z,94068.00
2023-03-19T10:00:56.950Z,94062.00
2023-03-19T10:04:06.135Z,94063.00
2023-03-19T10:06:40.308Z,94064.00
2023-03-19T10:09:38.819Z,94055.00
2023-03-19T10:12:22.720Z,94053.00
2023-03-19T10:15:25.631Z,94057.00
2023-03-19T10:18:24.420Z,94055.00
2023-03-19T10:21:19.738Z,94046.00
2023-03-19T10:24:01.504Z,94051.00
2023-03-19T10:26:37.559Z,94038.00
2023-03-19T10:29:21.264Z,94049.00
2023-03-19T10:31:53.842Z,94050.00
2023-03-19T10:34:44.611Z,94047.00
2023-03-19T10:37:28.800Z,94036.00
2023-03-19T10:40:00.896Z,94044.00
2023-03-19T10:42:49.298Z,94036.00
2023-03-19T10:45:27.101Z,94045.00
2023-03-19T10:47:56.563Z,94043.00
2023-03-19T10:50:50.878Z,94043.00
2023-03-19T10:53:17.642Z,94048.00
2023-03-19T10:56:13.144Z,94045.00
2023-03-19T10:59:03.920Z,94049.00
2023-03-19T11:01:42.869Z,94042.00
2023-03-19T11:04:29.692Z,94041.00
2023-03-19T11:07:03.751Z,94039.00
2023-03-19T11:09:40.986Z,94039.00
2023-03-19T11:12:33.867Z,94026.00
2023-03-19T11:15:07.480Z,94032.00
2023-03-19T11:17:52.726Z,94021.00
2023-03-19T11:20:34.283Z,94028.00
2023-03-19T11:23:07.742Z,94017.00
2023-03-19T11:25:42.058Z,94024.00
2023-03-19T11:28:14.475Z,94022.00
2023-03-19T11:30:53.385Z,94014.00
2023-03-19T11:33:41.881Z,94015.00
2023-03-19T11:36:16.708Z,94013.00
2023-03-19T11:39:22.734Z,94014.00
2023-03-19T11:42:29.706Z,94020.00
2023-03-19T11:45:31.437Z,94012.00
2023-03-19T11:49:08.691Z,94017.00
2023-03-19T11:51:52.088Z,94009.00
2023-03-19T11:54:30.753Z,94015.00
2023-03-19T11:57:34.931Z,94011.00
2023-03-19T12:00:39.377Z,93998.00
2023-03-19T12:03:52.578Z,94014.00
2023-03-19T12:06:45.862Z,94005.00
2023-03-19T12:09:38.259Z,94002.00
2023-03-19T12:12:36.967Z,94006.00
2023-03-19T12:15:24.251Z,93997.00
2023-03-19T12:17:59.557Z,94002.00
2023-03-19T12:20:46.053Z,94009.00
2023-03-19T12:23:44.586Z,94003.00
2023-03-19T12:26:45.389Z,94006.00
2023-03-19T12:29:27.070Z,93998.00
2023-03-19T12:32:21.477Z,94006.00
2023-03-19T12:34:55.984Z,94012.00
2023-03-19T12:37:39.192Z,94009.00
2023-03-19T12:40:24.064Z,94012.00
2023-03-19T12:42:52.010Z,94007.00
2023-03-19T12:45:41.298Z,94004.00
2023-03-19T12:48:16.810Z,94002.00
2023-03-19T12:50:52.499Z,93993.00
2023-03-19T12:53:49.564Z,93999.00
2023-03-19T12:56:34.562Z,93994.00
2023-03-19T12:59:39.469Z,93990.00
2023-03-19T13:02:22.954Z,93995.00
2023-03-19T13:05:30.734Z,93994.00
2023-03-19T13:08:02.465Z,93995.00
2023-03-19T13:10:32.580Z,93992.00
2023-03-19T13:13:14.894Z,93984.00
2023-03-19T13:15:47.843Z,93992.00
2023-03-19T13:18:32.483Z,93987.00
2023-03-19T13:21:11.693Z,93989.00
2023-03-19T13:23:44.130Z,93979.00
2023-03-19T13:26:19.598Z,93986.00
2023-03-19T13:29:10.762Z,93985.00
2023-03-19T13:31:41.735Z,93985.00
2023-03-19T13:34:29.974Z,93986.00
2023-03-19T13:37:14.510Z,93985.00
2023-03-19T13:39:42.909Z,93979.00
2023-03-19T13:42:42.167Z,93978.00
2023-03-19T13:45:38.355Z,93972.00
2023-03-19T13:48:47.600Z,93977.00
2023-03-19T13:51:21.792Z,93974.00
2023-03-19T13:53:59.856Z,93972.00
2023-03-19T13:56:32.400Z,93957.00
2023-03-19T13:59:25.189Z,93964.00
2023-03-19T14:01:52.315Z,93965.00
2023-03-19T14:04:32.988Z,93965.00
2023-03-19T14:07:14.938Z,93953.00
2023-03-19T14:09:47.179Z,93947.00
2023-03-19T14:12:20.571Z,93957.00
2023-03-19T14:14:56.008Z,93950.00
2023-03-19T14:17:30.130Z,93954.00
2023-03-19T14:20:28.333Z,93947.00
2023-03-19T14:23:09.234Z,93956.00
2023-03-19T14:26:06.399Z,93949.00
2023-03-19T14:28:33.268Z,93960.00
2023-03-19T14:31:02.762Z,93957.00
2023-03-19T14:33:43.715Z,93955.00
2023-03-19T14:36:22.002Z,93961.00
2023-03-19T14:39:31.684Z,93968.00
2023-03-19T14:42:31.557Z,93954.00
2023-03-19T14:45:32.081Z,93960.00
2023-03-19T14:48:54.508Z,93961.00
2023-03-19T14:52:04.614Z,93962.00
2023-03-19T14:54:43.347Z,93959.00
2023-03-19T14:57:21.441Z,93957.00
2023-03-19T14:59:55.547Z,93944.00
2023-03-19T15:02:44.657Z,93963.00
2023-03-19T15:05:21.011Z,93959.00
2023-03-19T15:07:53.490Z,93964.00
2023-03-19T15:10:24.496Z,93968.00
2023-03-19T15:13:25.534Z,93963.00
2023-03-19T15:16:21.337Z,93969.00
2023-03-19T15:18:49.674Z,93965.00
2023-03-19T15:21:17.724Z,93969.00
2023-03-19T15:23:50.673Z,93968.00
2023-03-19T15:26:36.955Z,93971.00
2023-03-19T15:29:11.676Z,93971.00
2023-03-19T15:31:57.534Z,93988.00
2023-03-19T15:34:31.219Z,93972.00
2023-03-19T15:37:15.570Z,93976.00
2023-03-19T15:39:50.372Z,93976.00
2023-03-19T15:42:19.835Z,93978.00
2023-03-19T15:45:17.471Z,93968.00
2023-03-19T15:48:06.173Z,93981.00
2023-03-19T15:50:42.403Z,93985.00
2023-03-19T15:53:18.434Z,93992.00
2023-03-19T15:55:48.602Z,93989.00
2023-03-19T15:58:21.866Z,93986.00
2023-03-19T16:00:49.338Z,93995.00
2023-03-19T16:03:28.360Z,93992.00
2023-03-19T16:06:06.973Z,93998.00
2023-03-19T16:08:34.239Z,93999.00
2023-03-19T16:11:40.531Z,94009.00
2023-03-19T16:14:17.169Z,94009.00
2023-03-19T16:16:48.459Z,93997.00
2023-03-19T16:19:36.708Z,94003.00
2023-03-19T16:22:24.815Z,94006.00
2023-03-19T16:24:56.887Z,94014.00
2023-03-19T16:27:38.273Z,94023.00
2023-03-19T16:30:23.915Z,94031.00
2023-03-19T16:32:59.604Z,94035.00
2023-03-19T16:35:30.281Z,94038.00
2023-03-19T16:38:28.292Z,94044.00
2023-03-19T16:41:24.302Z,94051.00
2023-03-19T16:43:54.331Z,94048.00
2023-03-19T16:46:23.990Z,94072.00
2023-03-19T16:48:53.884Z,94086.00
2023-03-19T16:51:25.398Z,94091.00
2023-03-19T16:53:52.430Z,94104.00
2023-03-19T16:56:19.918Z,94112.00
2023-03-19T16:58:49.657Z,94117.00
2023-03-19T17:01:23.067Z,94120.00
2023-03-19T17:03:54.028Z,94132.00
2023-03-19T17:06:25.161Z,94128.00
2023-03-19T17:08:52.157Z,94140.00
2023-03-19T17:11:31.208Z,94156.00
2023-03-19T17:14:01.880Z,94160.00
2023-03-19T17:16:31.587Z,94157.00
2023-03-19T17:18:59.721Z,94166.00
2023-03-19T17:21:31.269Z,94177.00
2023-03-19T17:24:21.667Z,94184.00
2023-03-19T17:26:48.977Z,94173.00
2023-03-19T17:29:20.175Z,94178.00
2023-03-19T17:31:48.114Z,94169.00
2023-03-19T17:34:27.111Z,94180.00
2023-03-19T17:37:04.119Z,94170.00
2023-03-19T17:39:34.137Z,94186.00
2023-03-19T17:42:00.979Z,94187.00
2023-03-19T17:44:30.546Z,94179.00
2023-03-19T17:46:57.580Z,94176.00
2023-03-19T17:49:32.410Z,94170.00
2023-03-19T17:52:00.113Z,94165.00
2023-03-19T17:54:29.383Z,94160.00
2023-03-19T17:56:58.669Z,94166.00
2023-03-19T17:59:32.608Z,94177.00
2023-03-19T18:02:01.850Z,94183.00
2023-03-19T18:04:31.356Z,94182.00
2023-03-19T18:06:58.292Z,94169.00
2023-03-19T18:09:32.766Z,94168.00
2023-03-19T18:12:02.050Z,94167.00
2023-03-19T18:14:31.224Z,94166.00
2023-03-19T18:17:00.609Z,94148.00
2023-03-19T18:19:29.802Z,94160.00
2023-03-19T18:21:56.737Z,94156.00
2023-03-19T18:24:26.117Z,94153.00
2023-03-19T18:26:55.637Z,94159.00
2023-03-19T18:29:24.917Z,94164.00
2023-03-19T18:31:53.701Z,94161.00
2023-03-19T18:34:20.903Z,94171.00
2023-03-19T18:36:51.016Z,94170.00
2023-03-19T18:39:22.598Z,94170.00
2023-03-19T18:41:49.649Z,94167.00
2023-03-19T18:44:18.605Z,94170.00
2023-03-19T18:46:45.651Z,94173.00
2023-03-19T18:49:21.668Z,94179.00
2023-03-19T18:52:02.304Z,94177.00
2023-03-19T18:54:33.226Z,94195.00
2023-03-19T18:57:04.131Z,94186.00
2023-03-19T18:59:33.499Z,94195.00
2023-03-19T19:02:17.609Z,94205.00
2023-03-19T19:04:44.527Z,94215.00
2023-03-19T19:07:17.358Z,94206.00
2023-03-19T19:09:49.807Z,94214.00
2023-03-19T19:12:18.696Z,94211.00
2023-03-19T19:14:46.266Z,94217.00
2023-03-19T19:17:23.262Z,94224.00
2023-03-19T19:19:52.322Z,94223.00
2023-03-19T19:22:20.301Z,94233.00
2023-03-19T19:24:47.513Z,94228.00
2023-03-19T19:27:27.052Z,94237.00
2023-03-19T19:29:57.393Z,94234.00
2023-03-19T19:32:30.839Z,94236.00
2023-03-19T19:34:57.749Z,94228.00
2023-03-19T19:37:29.347Z,94240.00
2023-03-19T19:39:56.480Z,94246.00
2023-03-19T19:42:23.931Z,94250.00
2023-03-19T19:44:58.987Z,94244.00
2023-03-19T19:47:27.075Z,94255.00
2023-03-19T19:49:53.923Z,94251.00
2023-03-19T19:52:21.147Z,94253.00
2023-03-19T19:54:51.886Z,94252.00
2023-03-19T19:57:24.446Z,94254.00
2023-03-19T19:59:55.577Z,94245.00
2023-03-19T20:02:28.920Z,94256.00
2023-03-19T20:04:57.818Z,94257.00
2023-03-19T20:07:24.820Z,94267.00
2023-03-19T20:09:51.814Z,94263.00
2023-03-19T20:12:26.634Z,94258.00
2023-03-19T20:14:53.973Z,94248.00
2023-03-19T20:17:21.216Z,94259.00
2023-03-19T20:19:48.690Z,94252.00
2023-03-19T20:22:16.387Z,94254.00
2023-03-19T20:24:43.448Z,94265.00
2023-03-19T20:27:22.609Z,94265.00
2023-03-19T20:29:50.719Z,94269.00
2023-03-19T20:32:37.800Z,94268.00
2023-03-19T20:35:15.690Z,94275.00
2023-03-19T20:37:42.678Z,94275.00
2023-03-19T20:40:11.812Z,94272.00
2023-03-19T20:42:39.690Z,94269.00
2023-03-19T20:45:09.873Z,94269.00
2023-03-19T20:47:37.188Z,94270.00
2023-03-19T20:50:04.683Z,94276.00
2023-03-19T20:52:33.878Z,94270.00
2023-03-19T20:55:03.976Z,94273.00
2023-03-19T20:57:33.650Z,94266.00
2023-03-19T21:00:17.292Z,94279.00
2023-03-19T21:02:44.167Z,94282.00
2023-03-19T21:05:16.198Z,94278.00
2023-03-19T21:07:46.827Z,94276.00
2023-03-19T21:10:32.101Z,94277.00
2023-03-19T21:13:01.787Z,94274.00
2023-03-19T21:15:29.650Z,94273.00
2023-03-19T21:17:57.398Z,94279.00
2023-03-19T21:20:31.394Z,94262.00
2023-03-19T21:23:28.159Z,94259.00
2023-03-19T21:26:01.321Z,94274.00
2023-03-19T21:28:36.563Z,94270.00
2023-03-19T21:31:03.718Z,94271.00
2023-03-19T21:33:35.546Z,94268.00
2023-03-19T21:36:06.669Z,94269.00
2023-03-19T21:38:33.719Z,94282.00
2023-03-19T21:41:05.078Z,94278.00
2023-03-19T21:43:41.529Z,94287.00
2023-03-19T21:46:24.067Z,94276.00
2023-03-19T21:48:55.188Z,94277.00
2023-03-19T21:51:23.614Z,94276.00
2023-03-19T21:53:53.107Z,94278.00
2023-03-19T21:56:35.500Z,94280.00
2023-03-19T21:59:19.608Z,94275.00
2023-03-19T22:01:46.727Z,94286.00
2023-03-19T22:04:13.885Z,94281.00
2023-03-19T22:06:43.456Z,94290.00
2023-03-19T22:09:10.619Z,94295.00
2023-03-19T22:11:39.984Z,94289.00
2023-03-19T22:14:30.132Z,94283.00
2023-03-19T22:16:57.835Z,94282.00
2023-03-19T22:19:30.315Z,94292.00
2023-03-19T22:21:57.229Z,94296.00
2023-03-19T22:24:24.115Z,94305.00
2023-03-19T22:26:57.019Z,94308.00
2023-03-19T22:29:29.077Z,94304.00
2023-03-19T22:32:01.011Z,94307.00
2023-03-19T22:34:28.486Z,94299.00
2023-03-19T22:37:00.775Z,94299.00
2023-03-19T22:39:27.625Z,94310.00
2023-03-19T22:41:57.006Z,94306.00
2023-03-19T22:44:31.296Z,94306.00
2023-03-19T22:47:02.341Z,94299.00
2023-03-19T22:49:32.195Z,94309.00
2023-03-19T22:51:59.191Z,94312.00
2023-03-19T22:54:28.839Z,94311.00
2023-03-19T22:56:55.702Z,94307.00
2023-03-19T22:59:25.446Z,94305.00
2023-03-19T23:01:54.828Z,94315.00
2023-03-19T23:04:25.402Z,94305.00
2023-03-19T23:06:56.646Z,94307.00
2023-03-19T23:09:26.080Z,94311.00
2023-03-19T23:11:53.783Z,94309.00
2023-03-19T23:14:29.501Z,94316.00
2023-03-19T23:17:06.757Z,94313.00
2023-03-19T23:19:36.930Z,94318.00
2023-03-19T23:22:06.643Z,94318.00
2023-03-19T23:24:35.218Z,94321.00
2023-03-19T23:27:03.478Z,94324.00
2023-03-19T23:29:34.927Z,94324.00
2023-03-19T23:32:04.961Z,94320.00
2023-03-19T23:34:35.310Z,94326.00
2023-03-19T23:37:09.248Z,94328.00
2023-03-19T23:39:36.964Z,94329.00
2023-03-19T23:42:04.921Z,94332.00
2023-03-19T23:44:36.931Z,94325.00
2023-03-19T23:47:03.868Z,94325.00
2023-03-19T23:49:32.963Z,94322.00
2023-03-19T23:52:01.887Z,94323.00
2023-03-19T23:54:37.766Z,94322.00
2023-03-19T23:57:10.626Z,94332.00
2023-03-19T23:59:40.450Z,94331.00
